sensor_id;sensor_type;location;lat;lon;timestamp;pressure;altitude;pressure_sealevel;temperature;humidity
21828;BME280;11076;47.942;11.804;2023-04-09T00:01:10;94910.44;;;3.04;100.00
21828;BME280;11076;47.942;11.804;2023-04-09T00:06:13;94907.47;;;2.98;100.00
21828;BME280;11076;47.942;11.804;2023-04-09T00:11:15;94902.78;;;2.92;100.00
21828;BME280;11076;47.942;11.804;2023-04-09T00:16:18;94901.44;;;2.88;100.00
21828;BME280;11076;47.942;11.804;2023-04-09T00:21:20;94901.44;;;2.88;100.00
21828;BME280;11076;47.942;11.804;2023-04-09T00:26:23;94896.84;;;2.90;100.00
21828;BME280;11076;47.942;11.804;2023-04-09T00:31:25;94902.13;;;2.90;100.00
21828;BME280;11076;47.942;11.804;2023-04-09T00:36:27;94898.47;;;2.83;100.00
21828;BME280;11076;47.942;11.804;2023-04-09T00:41:30;94893.88;;;2.93;100.00
21828;BME280;11076;47.942;11.804;2023-04-09T00:46:32;94891.22;;;2.85;100.00
21828;BME280;11076;47.942;11.804;2023-04-09T00:51:35;94895.03;;;2.91;100.00
21828;BME280;11076;47.942;11.804;2023-04-09T00:56:38;94897.47;;;2.84;100.00
21828;BME280;11076;47.942;11.804;2023-04-09T01:01:41;94898.13;;;2.86;100.00
21828;BME280;11076;47.942;11.804;2023-04-09T01:17:33;94895.47;;;2.78;100.00
21828;BME280;11076;47.942;11.804;2023-04-09T01:28:14;94892.19;;;2.84;100.00
21828;BME280;11076;47.942;11.804;2023-04-09T01:33:21;94903.25;;;2.79;100.00
21828;BME280;11076;47.942;11.804;2023-04-09T01:38:26;94893.94;;;2.67;100.00
21828;BME280;11076;47.942;11.804;2023-04-09T01:43:30;94894.78;;;2.76;100.00
21828;BME280;11076;47.942;11.804;2023-04-09T01:48:35;94891.63;;;2.72;100.00
21828;BME280;11076;47.942;11.804;2023-04-09T01:53:38;94897.59;;;2.74;100.00
21828;BME280;11076;47.942;11.804;2023-04-09T01:58:41;94895.31;;;2.79;100.00
21828;BME280;11076;47.942;11.804;2023-04-09T02:03:47;94902.13;;;2.90;100.00
21828;BME280;11076;47.942;11.804;2023-04-09T02:08:51;94900.31;;;2.91;100.00
21828;BME280;11076;47.942;11.804;2023-04-09T02:13:55;94897.84;;;2.89;100.00
21828;BME280;11076;47.942;11.804;2023-04-09T02:18:58;94900.63;;;2.88;100.00
21828;BME280;11076;47.942;11.804;2023-04-09T02:24:02;94893.09;;;3.01;100.00
21828;BME280;11076;47.942;11.804;2023-04-09T02:29:05;94893.41;;;3.06;100.00
21828;BME280;11076;47.942;11.804;2023-04-09T02:34:08;94888.66;;;3.10;100.00
21828;BME280;11076;47.942;11.804;2023-04-09T02:39:11;94897.56;;;3.09;100.00
21828;BME280;11076;47.942;11.804;2023-04-09T02:44:14;94894.28;;;3.07;100.00
21828;BME280;11076;47.942;11.804;2023-04-09T02:49:16;94904.97;;;2.97;100.00
21828;BME280;11076;47.942;11.804;2023-04-09T02:54:20;94896.50;;;2.85;100.00
21828;BME280;11076;47.942;11.804;2023-04-09T02:59:24;94884.25;;;2.84;100.00
21828;BME280;11076;47.942;11.804;2023-04-09T03:04:27;94875.03;;;2.88;100.00
21828;BME280;11076;47.942;11.804;2023-04-09T03:09:29;94883.63;;;2.90;100.00
21828;BME280;11076;47.942;11.804;2023-04-09T03:14:32;94884.13;;;2.94;100.00
21828;BME280;11076;47.942;11.804;2023-04-09T03:19:35;94871.75;;;2.94;100.00
21828;BME280;11076;47.942;11.804;2023-04-09T03:24:38;94869.44;;;2.91;100.00
21828;BME280;11076;47.942;11.804;2023-04-09T03:29:40;94892.16;;;2.76;100.00
21828;BME280;11076;47.942;11.804;2023-04-09T03:34:44;94893.38;;;2.55;100.00
21828;BME280;11076;47.942;11.804;2023-04-09T03:39:47;94892.31;;;2.40;100.00
21828;BME280;11076;47.942;11.804;2023-04-09T03:44:52;94884.25;;;2.15;100.00
21828;BME280;11076;47.942;11.804;2023-04-09T03:50:09;94899.25;;;2.15;100.00
21828;BME280;11076;47.942;11.804;2023-04-09T03:55:27;94900.28;;;2.22;100.00
21828;BME280;11076;47.942;11.804;2023-04-09T04:00:30;94892.94;;;2.34;100.00
21828;BME280;11076;47.942;11.804;2023-04-09T04:05:50;94901.19;;;2.31;100.00
21828;BME280;11076;47.942;11.804;2023-04-09T04:10:53;94904.84;;;2.38;100.00
21828;BME280;11076;47.942;11.804;2023-04-09T04:15:57;94908.81;;;2.42;100.00
21828;BME280;11076;47.942;11.804;2023-04-09T04:20:59;94912.28;;;2.43;100.00
21828;BME280;11076;47.942;11.804;2023-04-09T04:26:07;94903.25;;;2.45;100.00
21828;BME280;11076;47.942;11.804;2023-04-09T04:31:11;94899.88;;;2.35;100.00
21828;BME280;11076;47.942;11.804;2023-04-09T04:36:15;94902.25;;;2.20;100.00
21828;BME280;11076;47.942;11.804;2023-04-09T04:41:23;94901.31;;;2.03;100.00
21828;BME280;11076;47.942;11.804;2023-04-09T04:46:35;94890.63;;;1.87;100.00
21828;BME280;11076;47.942;11.804;2023-04-09T04:51:38;94887.84;;;1.88;100.00
21828;BME280;11076;47.942;11.804;2023-04-09T04:56:44;94910.53;;;1.99;100.00
21828;BME280;11076;47.942;11.804;2023-04-09T05:01:55;94918.59;;;1.79;100.00
21828;BME280;11076;47.942;11.804;2023-04-09T05:06:59;94918.53;;;1.53;100.00
21828;BME280;11076;47.942;11.804;2023-04-09T05:12:02;94922.53;;;1.57;100.00
21828;BME280;11076;47.942;11.804;2023-04-09T05:17:05;94921.91;;;1.82;100.00
21828;BME280;11076;47.942;11.804;2023-04-09T05:22:15;94929.47;;;2.03;100.00
21828;BME280;11076;47.942;11.804;2023-04-09T05:27:19;94933.66;;;2.31;100.00
21828;BME280;11076;47.942;11.804;2023-04-09T05:32:27;94926.00;;;2.46;100.00
21828;BME280;11076;47.942;11.804;2023-04-09T05:37:31;94934.88;;;2.37;100.00
21828;BME280;11076;47.942;11.804;2023-04-09T05:42:33;94935.88;;;2.44;100.00
21828;BME280;11076;47.942;11.804;2023-04-09T05:47:56;94940.22;;;2.79;100.00
21828;BME280;11076;47.942;11.804;2023-04-09T05:52:59;94928.66;;;3.15;100.00
21828;BME280;11076;47.942;11.804;2023-04-09T05:58:10;94932.72;;;3.60;100.00
21828;BME280;11076;47.942;11.804;2023-04-09T06:03:13;94937.84;;;3.70;100.00
21828;BME280;11076;47.942;11.804;2023-04-09T06:08:16;94931.59;;;3.71;100.00
21828;BME280;11076;47.942;11.804;2023-04-09T06:13:18;94937.91;;;4.03;100.00
21828;BME280;11076;47.942;11.804;2023-04-09T06:18:20;94936.41;;;4.16;100.00
21828;BME280;11076;47.942;11.804;2023-04-09T06:23:23;94931.25;;;4.48;100.00
21828;BME280;11076;47.942;11.804;2023-04-09T06:28:27;94939.09;;;4.89;100.00
21828;BME280;11076;47.942;11.804;2023-04-09T06:33:30;94951.72;;;5.26;100.00
21828;BME280;11076;47.942;11.804;2023-04-09T06:38:32;94951.31;;;5.46;100.00
21828;BME280;11076;47.942;11.804;2023-04-09T06:43:34;94946.34;;;5.43;100.00
21828;BME280;11076;47.942;11.804;2023-04-09T06:48:38;94963.56;;;5.47;100.00
21828;BME280;11076;47.942;11.804;2023-04-09T06:53:41;94955.72;;;5.85;100.00
21828;BME280;11076;47.942;11.804;2023-04-09T06:58:43;94960.84;;;6.17;100.00
21828;BME280;11076;47.942;11.804;2023-04-09T07:03:46;94961.91;;;6.08;100.00
21828;BME280;11076;47.942;11.804;2023-04-09T07:08:48;94964.09;;;6.66;100.00
21828;BME280;11076;47.942;11.804;2023-04-09T07:13:51;94961.31;;;7.27;100.00
21828;BME280;11076;47.942;11.804;2023-04-09T07:18:53;94963.75;;;7.58;100.00
21828;BME280;11076;47.942;11.804;2023-04-09T07:23:56;94964.13;;;7.25;96.64
21828;BME280;11076;47.942;11.804;2023-04-09T07:28:58;94960.94;;;7.15;98.27
21828;BME280;11076;47.942;11.804;2023-04-09T07:34:01;94967.25;;;7.14;95.33
21828;BME280;11076;47.942;11.804;2023-04-09T07:39:03;94968.69;;;6.72;94.82
21828;BME280;11076;47.942;11.804;2023-04-09T07:44:06;94972.09;;;6.81;94.48
21828;BME280;11076;47.942;11.804;2023-04-09T07:49:08;94969.59;;;7.53;94.85
21828;BME280;11076;47.942;11.804;2023-04-09T07:54:11;94974.41;;;7.80;96.02
21828;BME280;11076;47.942;11.804;2023-04-09T07:59:13;94976.66;;;7.76;95.79
21828;BME280;11076;47.942;11.804;2023-04-09T08:04:18;94970.75;;;7.81;92.61
21828;BME280;11076;47.942;11.804;2023-04-09T08:09:21;94969.66;;;8.11;91.79
21828;BME280;11076;47.942;11.804;2023-04-09T08:14:24;94975.38;;;8.73;89.04
21828;BME280;11076;47.942;11.804;2023-04-09T08:19:26;94978.72;;;8.53;85.50
21828;BME280;11076;47.942;11.804;2023-04-09T08:24:29;94978.91;;;8.80;83.25
21828;BME280;11076;47.942;11.804;2023-04-09T08:29:31;94973.31;;;8.75;81.45
21828;BME280;11076;47.942;11.804;2023-04-09T08:34:35;94973.91;;;8.27;84.29
21828;BME280;11076;47.942;11.804;2023-04-09T08:39:37;94974.03;;;8.41;82.85
21828;BME280;11076;47.942;11.804;2023-04-09T08:44:40;94973.63;;;8.87;81.87
21828;BME280;11076;47.942;11.804;2023-04-09T08:49:42;94992.28;;;8.59;80.46
21828;BME280;11076;47.942;11.804;2023-04-09T08:54:45;94985.50;;;9.12;80.24
21828;BME280;11076;47.942;11.804;2023-04-09T08:59:47;94986.25;;;9.00;75.96
21828;BME280;11076;47.942;11.804;2023-04-09T09:04:50;94993.31;;;8.58;75.03
21828;BME280;11076;47.942;11.804;2023-04-09T09:10:01;94996.34;;;8.54;75.69
21828;BME280;11076;47.942;11.804;2023-04-09T09:15:36;94989.25;;;8.90;74.04
21828;BME280;11076;47.942;11.804;2023-04-09T09:20:38;95000.25;;;8.80;75.36
21828;BME280;11076;47.942;11.804;2023-04-09T09:25:42;94998.03;;;9.12;70.93
21828;BME280;11076;47.942;11.804;2023-04-09T09:30:45;94998.09;;;9.60;70.46
21828;BME280;11076;47.942;11.804;2023-04-09T09:35:50;94990.59;;;9.84;69.84
21828;BME280;11076;47.942;11.804;2023-04-09T09:40:53;94986.09;;;10.46;65.80
21828;BME280;11076;47.942;11.804;2023-04-09T09:45:56;94978.09;;;10.86;68.49
21828;BME280;11076;47.942;11.804;2023-04-09T09:51:00;94981.59;;;10.73;64.88
21828;BME280;11076;47.942;11.804;2023-04-09T09:56:05;94985.09;;;11.00;66.39
21828;BME280;11076;47.942;11.804;2023-04-09T10:01:12;94987.56;;;10.88;62.15
21828;BME280;11076;47.942;11.804;2023-04-09T10:06:15;94989.56;;;11.33;62.73
21828;BME280;11076;47.942;11.804;2023-04-09T10:11:17;94979.03;;;12.17;62.62
21828;BME280;11076;47.942;11.804;2023-04-09T10:16:21;94971.97;;;12.22;57.71
21828;BME280;11076;47.942;11.804;2023-04-09T10:26:41;94986.94;;;11.98;56.64
21828;BME280;11076;47.942;11.804;2023-04-09T10:36:58;94979.09;;;10.98;59.35
21828;BME280;11076;47.942;11.804;2023-04-09T10:42:07;94977.81;;;11.41;59.86
21828;BME280;11076;47.942;11.804;2023-04-09T10:47:30;94981.28;;;11.48;58.37
21828;BME280;11076;47.942;11.804;2023-04-09T10:52:33;94980.94;;;11.24;60.72
21828;BME280;11076;47.942;11.804;2023-04-09T10:57:36;94985.00;;;11.47;59.39
21828;BME280;11076;47.942;11.804;2023-04-09T11:07:46;94973.97;;;11.17;59.29
21828;BME280;11076;47.942;11.804;2023-04-09T11:12:50;94980.97;;;11.11;60.38
21828;BME280;11076;47.942;11.804;2023-04-09T11:17:53;94967.31;;;10.19;59.58
21828;BME280;11076;47.942;11.804;2023-04-09T11:22:57;94972.72;;;9.78;62.13
21828;BME280;11076;47.942;11.804;2023-04-09T11:28:02;94971.59;;;9.59;63.12
21828;BME280;11076;47.942;11.804;2023-04-09T11:33:06;94973.47;;;9.23;64.05
21828;BME280;11076;47.942;11.804;2023-04-09T11:38:10;94966.28;;;9.24;65.57
21828;BME280;11076;47.942;11.804;2023-04-09T11:43:13;94973.06;;;9.26;65.40
21828;BME280;11076;47.942;11.804;2023-04-09T11:48:17;94969.25;;;9.42;64.49
21828;BME280;11076;47.942;11.804;2023-04-09T11:53:21;94971.13;;;9.42;65.92
21828;BME280;11076;47.942;11.804;2023-04-09T11:58:25;94984.38;;;9.63;64.23
21828;BME280;11076;47.942;11.804;2023-04-09T12:03:30;94979.13;;;9.42;64.62
21828;BME280;11076;47.942;11.804;2023-04-09T12:08:38;94985.88;;;9.38;64.17
21828;BME280;11076;47.942;11.804;2023-04-09T12:13:40;94985.00;;;9.30;64.38
21828;BME280;11076;47.942;11.804;2023-04-09T12:18:46;94981.88;;;9.55;63.29
21828;BME280;11076;47.942;11.804;2023-04-09T12:23:49;94974.72;;;10.30;62.40
21828;BME280;11076;47.942;11.804;2023-04-09T12:28:51;94977.28;;;10.85;60.37
21828;BME280;11076;47.942;11.804;2023-04-09T12:33:53;94986.72;;;11.08;59.98
21828;BME280;11076;47.942;11.804;2023-04-09T12:38:56;94980.94;;;11.18;60.10
21828;BME280;11076;47.942;11.804;2023-04-09T12:43:59;94984.28;;;11.06;58.63
21828;BME280;11076;47.942;11.804;2023-04-09T12:49:01;94976.00;;;11.34;58.12
21828;BME280;11076;47.942;11.804;2023-04-09T12:54:03;94981.94;;;11.43;58.68
21828;BME280;11076;47.942;11.804;2023-04-09T12:59:06;94973.56;;;10.93;58.35
21828;BME280;11076;47.942;11.804;2023-04-09T13:04:09;94976.44;;;10.85;58.93
21828;BME280;11076;47.942;11.804;2023-04-09T13:09:12;94976.03;;;11.14;57.38
21828;BME280;11076;47.942;11.804;2023-04-09T13:14:14;94976.78;;;11.48;57.66
21828;BME280;11076;47.942;11.804;2023-04-09T13:19:17;94962.88;;;11.71;56.96
21828;BME280;11076;47.942;11.804;2023-04-09T13:24:20;94975.03;;;11.81;57.50
21828;BME280;11076;47.942;11.804;2023-04-09T13:29:22;94967.28;;;11.46;56.05
21828;BME280;11076;47.942;11.804;2023-04-09T13:34:27;94962.41;;;11.29;54.81
21828;BME280;11076;47.942;11.804;2023-04-09T13:39:29;94957.91;;;11.17;55.52
21828;BME280;11076;47.942;11.804;2023-04-09T13:44:32;94949.88;;;11.10;56.79
21828;BME280;11076;47.942;11.804;2023-04-09T13:49:34;94952.97;;;10.93;57.73
21828;BME280;11076;47.942;11.804;2023-04-09T13:54:37;94953.19;;;10.65;58.23
21828;BME280;11076;47.942;11.804;2023-04-09T13:59:39;94939.81;;;10.52;59.51
21828;BME280;11076;47.942;11.804;2023-04-09T14:04:43;94948.47;;;10.41;60.32
21828;BME280;11076;47.942;11.804;2023-04-09T14:09:46;94943.50;;;10.64;59.26
21828;BME280;11076;47.942;11.804;2023-04-09T14:14:48;94941.28;;;10.54;59.93
21828;BME280;11076;47.942;11.804;2023-04-09T14:19:51;94951.53;;;10.44;59.88
21828;BME280;11076;47.942;11.804;2023-04-09T14:24:53;94939.81;;;10.52;60.15
21828;BME280;11076;47.942;11.804;2023-04-09T14:29:55;94943.44;;;10.18;61.52
21828;BME280;11076;47.942;11.804;2023-04-09T14:34:58;94953.59;;;9.32;63.01
21828;BME280;11076;47.942;11.804;2023-04-09T14:40:00;94945.97;;;8.88;64.93
21828;BME280;11076;47.942;11.804;2023-04-09T14:45:03;94940.00;;;8.58;66.34
21828;BME280;11076;47.942;11.804;2023-04-09T14:50:06;94934.03;;;9.19;64.67
21828;BME280;11076;47.942;11.804;2023-04-09T14:55:08;94940.50;;;9.38;63.56
21828;BME280;11076;47.942;11.804;2023-04-09T15:00:13;94929.75;;;9.72;63.88
21828;BME280;11076;47.942;11.804;2023-04-09T15:05:16;94938.34;;;9.61;63.33
21828;BME280;11076;47.942;11.804;2023-04-09T15:10:18;94938.81;;;9.71;62.62
21828;BME280;11076;47.942;11.804;2023-04-09T15:15:20;94931.50;;;10.07;61.47
21828;BME280;11076;47.942;11.804;2023-04-09T15:20:23;94930.09;;;10.18;59.30
21828;BME280;11076;47.942;11.804;2023-04-09T15:25:25;94916.78;;;10.58;57.18
21828;BME280;11076;47.942;11.804;2023-04-09T15:30:28;94919.25;;;10.92;55.20
21828;BME280;11076;47.942;11.804;2023-04-09T15:35:30;94913.44;;;11.22;54.60
21828;BME280;11076;47.942;11.804;2023-04-09T15:40:33;94915.28;;;11.15;55.14
21828;BME280;11076;47.942;11.804;2023-04-09T15:45:35;94924.59;;;10.66;55.63
21828;BME280;11076;47.942;11.804;2023-04-09T15:50:38;94916.97;;;10.76;56.65
21828;BME280;11076;47.942;11.804;2023-04-09T15:55:41;94917.22;;;10.34;57.39
21828;BME280;11076;47.942;11.804;2023-04-09T16:00:43;94915.19;;;9.75;58.40
21828;BME280;11076;47.942;11.804;2023-04-09T16:05:48;94908.38;;;9.59;59.59
21828;BME280;11076;47.942;11.804;2023-04-09T16:10:51;94914.56;;;9.25;61.54
21828;BME280;11076;47.942;11.804;2023-04-09T16:21:15;94919.72;;;8.91;63.33
21828;BME280;11076;47.942;11.804;2023-04-09T16:26:17;94915.72;;;8.74;64.65
21828;BME280;11076;47.942;11.804;2023-04-09T16:31:20;94922.09;;;8.51;64.59
21828;BME280;11076;47.942;11.804;2023-04-09T16:36:22;94928.69;;;8.34;65.84
21828;BME280;11076;47.942;11.804;2023-04-09T16:41:25;94933.75;;;8.07;65.93
21828;BME280;11076;47.942;11.804;2023-04-09T16:46:27;94939.97;;;7.93;66.81
21828;BME280;11076;47.942;11.804;2023-04-09T16:51:30;94933.84;;;7.77;66.97
21828;BME280;11076;47.942;11.804;2023-04-09T16:56:32;94935.13;;;7.60;67.79
21828;BME280;11076;47.942;11.804;2023-04-09T17:01:35;94940.28;;;7.47;68.36
21828;BME280;11076;47.942;11.804;2023-04-09T17:06:37;94939.91;;;7.35;69.01
21828;BME280;11076;47.942;11.804;2023-04-09T17:11:40;94942.31;;;7.15;69.84
21828;BME280;11076;47.942;11.804;2023-04-09T17:16:43;94942.66;;;6.82;72.04
21828;BME280;11076;47.942;11.804;2023-04-09T17:21:46;94943.94;;;6.56;73.84
21828;BME280;11076;47.942;11.804;2023-04-09T17:26:48;94943.22;;;6.25;75.02
21828;BME280;11076;47.942;11.804;2023-04-09T17:31:51;94950.16;;;6.03;75.21
21828;BME280;11076;47.942;11.804;2023-04-09T17:36:54;94945.09;;;5.85;76.08
21828;BME280;11076;47.942;11.804;2023-04-09T17:42:01;94951.25;;;5.54;76.27
21828;BME280;11076;47.942;11.804;2023-04-09T17:47:05;94946.09;;;5.29;77.19
21828;BME280;11076;47.942;11.804;2023-04-09T17:52:08;94955.78;;;5.06;79.16
21828;BME280;11076;47.942;11.804;2023-04-09T17:57:11;94961.16;;;4.73;79.90
21828;BME280;11076;47.942;11.804;2023-04-09T18:02:13;94961.22;;;4.48;81.72
21828;BME280;11076;47.942;11.804;2023-04-09T18:07:16;94973.44;;;4.33;82.68
21828;BME280;11076;47.942;11.804;2023-04-09T18:12:18;94977.59;;;4.19;83.09
21828;BME280;11076;47.942;11.804;2023-04-09T18:17:20;94977.75;;;4.01;83.89
21828;BME280;11076;47.942;11.804;2023-04-09T18:22:24;94986.63;;;3.75;85.83
21828;BME280;11076;47.942;11.804;2023-04-09T18:27:26;94986.59;;;3.59;88.99
21828;BME280;11076;47.942;11.804;2023-04-09T18:32:29;94990.03;;;3.51;88.82
21828;BME280;11076;47.942;11.804;2023-04-09T18:37:31;94989.34;;;3.41;89.45
21828;BME280;11076;47.942;11.804;2023-04-09T18:42:35;94998.56;;;3.29;89.81
21828;BME280;11076;47.942;11.804;2023-04-09T18:47:37;95003.28;;;3.17;90.35
21828;BME280;11076;47.942;11.804;2023-04-09T18:52:42;94999.44;;;3.03;90.88
21828;BME280;11076;47.942;11.804;2023-04-09T18:57:44;95007.75;;;2.90;91.80
21828;BME280;11076;47.942;11.804;2023-04-09T19:02:47;95017.66;;;2.88;92.47
21828;BME280;11076;47.942;11.804;2023-04-09T19:07:56;95012.47;;;2.78;92.62
21828;BME280;11076;47.942;11.804;2023-04-09T19:12:59;95022.38;;;2.76;93.76
21828;BME280;11076;47.942;11.804;2023-04-09T19:18:02;95021.97;;;2.63;95.23
21828;BME280;11076;47.942;11.804;2023-04-09T19:23:04;95029.66;;;2.56;95.94
21828;BME280;11076;47.942;11.804;2023-04-09T19:28:07;95040.00;;;2.50;95.86
21828;BME280;11076;47.942;11.804;2023-04-09T19:33:10;95034.97;;;2.38;95.96
21828;BME280;11076;47.942;11.804;2023-04-09T19:38:12;95030.63;;;2.29;96.12
21828;BME280;11076;47.942;11.804;2023-04-09T19:43:15;95026.72;;;2.15;97.29
21828;BME280;11076;47.942;11.804;2023-04-09T19:48:17;95026.66;;;2.07;98.57
21828;BME280;11076;47.942;11.804;2023-04-09T19:53:20;95034.84;;;2.04;99.04
21828;BME280;11076;47.942;11.804;2023-04-09T19:58:22;95028.53;;;1.97;99.08
21828;BME280;11076;47.942;11.804;2023-04-09T20:03:25;95025.09;;;1.87;99.52
21828;BME280;11076;47.942;11.804;2023-04-09T20:08:27;95033.94;;;1.77;100.00
21828;BME280;11076;47.942;11.804;2023-04-09T20:13:30;95034.13;;;1.66;100.00
21828;BME280;11076;47.942;11.804;2023-04-09T20:18:32;95032.09;;;1.60;100.00
21828;BME280;11076;47.942;11.804;2023-04-09T20:23:35;95023.28;;;1.51;100.00
21828;BME280;11076;47.942;11.804;2023-04-09T20:28:38;95031.06;;;1.43;100.00
21828;BME280;11076;47.942;11.804;2023-04-09T20:33:41;95039.13;;;1.42;100.00
21828;BME280;11076;47.942;11.804;2023-04-09T20:38:44;95039.19;;;1.32;100.00
21828;BME280;11076;47.942;11.804;2023-04-09T20:43:46;95034.22;;;1.19;100.00
21828;BME280;11076;47.942;11.804;2023-04-09T20:48:49;95035.13;;;1.10;100.00
21828;BME280;11076;47.942;11.804;2023-04-09T20:53:51;95036.22;;;1.07;100.00
21828;BME280;11076;47.942;11.804;2023-04-09T20:58:55;95035.41;;;1.07;100.00
21828;BME280;11076;47.942;11.804;2023-04-09T21:03:58;95033.38;;;0.91;100.00
21828;BME280;11076;47.942;11.804;2023-04-09T21:09:01;95026.06;;;0.85;100.00
21828;BME280;11076;47.942;11.804;2023-04-09T21:14:04;95025.22;;;0.94;100.00
21828;BME280;11076;47.942;11.804;2023-04-09T21:19:08;95019.22;;;1.02;100.00
21828;BME280;11076;47.942;11.804;2023-04-09T21:24:10;95014.06;;;1.10;100.00
21828;BME280;11076;47.942;11.804;2023-04-09T21:29:13;95016.28;;;1.05;100.00
21828;BME280;11076;47.942;11.804;2023-04-09T21:34:15;95022.38;;;1.05;100.00
21828;BME280;11076;47.942;11.804;2023-04-09T21:39:17;95026.56;;;0.98;100.00
21828;BME280;11076;47.942;11.804;2023-04-09T21:44:20;95013.50;;;1.06;100.00
21828;BME280;11076;47.942;11.804;2023-04-09T21:49:22;95020.66;;;1.24;100.00
21828;BME280;11076;47.942;11.804;2023-04-09T21:54:25;95018.34;;;1.11;100.00
21828;BME280;11076;47.942;11.804;2023-04-09T21:59:27;95018.63;;;1.08;100.00
21828;BME280;11076;47.942;11.804;2023-04-09T22:04:29;95025.84;;;1.06;100.00
21828;BME280;11076;47.942;11.804;2023-04-09T22:09:32;95030.47;;;0.94;100.00
21828;BME280;11076;47.942;11.804;2023-04-09T22:14:35;95037.72;;;0.82;100.00
21828;BME280;11076;47.942;11.804;2023-04-09T22:19:37;95041.50;;;0.70;100.00
21828;BME280;11076;47.942;11.804;2023-04-09T22:24:41;95049.38;;;0.70;100.00
21828;BME280;11076;47.942;11.804;2023-04-09T22:29:44;95048.00;;;0.66;100.00
21828;BME280;11076;47.942;11.804;2023-04-09T22:34:46;95051.19;;;0.59;100.00
21828;BME280;11076;47.942;11.804;2023-04-09T22:39:49;95045.53;;;0.54;100.00
21828;BME280;11076;47.942;11.804;2023-04-09T22:44:51;95051.63;;;0.45;100.00
21828;BME280;11076;47.942;11.804;2023-04-09T22:49:55;95053.31;;;0.36;100.00
21828;BME280;11076;47.942;11.804;2023-04-09T22:54:57;95043.91;;;0.34;100.00
21828;BME280;11076;47.942;11.804;2023-04-09T22:59:59;95046.38;;;0.26;100.00
21828;BME280;11076;47.942;11.804;2023-04-09T23:05:02;95052.19;;;0.10;100.00
21828;BME280;11076;47.942;11.804;2023-04-09T23:10:05;95049.84;;;-0.03;100.00
21828;BME280;11076;47.942;11.804;2023-04-09T23:15:08;95044.88;;;-0.16;100.00
21828;BME280;11076;47.942;11.804;2023-04-09T23:20:11;95042.50;;;-0.29;100.00
21828;BME280;11076;47.942;11.804;2023-04-09T23:25:16;95036.69;;;-0.32;100.00
21828;BME280;11076;47.942;11.804;2023-04-09T23:30:18;95035.03;;;-0.33;100.00
21828;BME280;11076;47.942;11.804;2023-04-09T23:35:22;95024.09;;;-0.29;100.00
21828;BME280;11076;47.942;11.804;2023-04-09T23:40:25;95014.41;;;-0.28;100.00
21828;BME280;11076;47.942;11.804;2023-04-09T23:45:27;95001.00;;;-0.25;100.00
21828;BME280;11076;47.942;11.804;2023-04-09T23:50:30;95006.97;;;-0.23;100.00
21828;BME280;11076;47.942;11.804;2023-04-09T23:55:33;94998.25;;;-0.24;100.00
